Time;durP1;ratioP1;P1;durP2;ratioP2;P2;SDS_P1;SDS_P2;PMS_P1;PMS_P2;Temp;Humidity;BMP_temperature;BMP_pressure;BME280_temperature;BME280_humidity;BME280_pressure;Samples;Min_cycle;Max_cycle;Signal;HPM_P1;HPM_P2
2022/01/02 00:00:29;;;;;;;1.53;0.70;;;;;;;1.39;100.00;97927.69;5071299;28;20044;-68
2022/01/02 00:03:24;;;;;;;1.03;0.50;;;;;;;1.38;100.00;97920.78;5072118;28;20085;-68
2022/01/02 00:06:11;;;;;;;3.00;0.50;;;;;;;1.34;100.00;97922.63;5073559;28;20052;-68
2022/01/02 00:09:06;;;;;;;0.50;0.50;;;;;;;1.29;100.00;97926.25;5071822;28;20059;-66
2022/01/02 00:11:57;;;;;;;1.37;0.57;;;;;;;1.29;100.00;97926.25;5072004;28;20140;-67
2022/01/02 00:14:44;;;;;;;1.50;0.60;;;;;;;1.27;100.00;97925.47;5072094;28;20393;-67
2022/01/02 00:17:31;;;;;;;0.97;0.50;;;;;;;1.24;100.00;97935.94;5072156;28;20059;-67
2022/01/02 00:20:21;;;;;;;3.10;1.10;;;;;;;1.25;100.00;97943.66;5071841;28;20499;-67
2022/01/02 00:23:07;;;;;;;1.30;0.63;;;;;;;1.29;100.00;97947.00;5072128;28;20185;-66
2022/01/02 00:25:54;;;;;;;0.50;0.40;;;;;;;1.26;100.00;97962.66;5071620;28;20055;-67
2022/01/02 00:28:41;;;;;;;0.60;0.50;;;;;;;1.25;100.00;97953.19;5072133;28;20099;-67
2022/01/02 00:31:26;;;;;;;1.03;0.60;;;;;;;1.17;100.00;97960.34;5070682;28;20520;-67
2022/01/02 00:34:12;;;;;;;0.67;0.60;;;;;;;1.18;100.00;97975.88;5069823;28;20059;-67
2022/01/02 00:36:59;;;;;;;1.17;0.50;;;;;;;1.13;100.00;97977.75;5071389;28;20056;-67
2022/01/02 00:39:45;;;;;;;0.40;0.40;;;;;;;1.17;100.00;97974.19;5071433;28;20589;-67
2022/01/02 00:42:33;;;;;;;0.83;0.50;;;;;;;1.19;100.00;97972.38;5071808;28;20047;-68
2022/01/02 00:45:24;;;;;;;1.13;0.50;;;;;;;1.12;100.00;97975.22;5072732;28;20059;-68
2022/01/02 00:48:14;;;;;;;0.80;0.43;;;;;;;1.12;100.00;97965.66;5070448;28;20523;-67
2022/01/02 00:51:04;;;;;;;0.30;0.30;;;;;;;1.11;100.00;97973.47;5071089;28;20048;-67
2022/01/02 00:53:55;;;;;;;0.60;0.40;;;;;;;1.12;100.00;97978.63;5071385;28;20532;-67
2022/01/02 00:56:44;;;;;;;0.30;0.30;;;;;;;1.11;100.00;97976.06;5070169;28;20047;-67
2022/01/02 00:59:31;;;;;;;0.30;0.30;;;;;;;1.08;100.00;97981.38;5071391;28;20520;-66
2022/01/02 01:02:19;;;;;;;0.50;0.30;;;;;;;1.07;100.00;97990.03;5071518;28;20078;-67
2022/01/02 01:05:07;;;;;;;0.40;0.40;;;;;;;1.04;100.00;97978.00;5069954;28;20089;-66
2022/01/02 01:07:56;;;;;;;0.67;0.50;;;;;;;1.02;100.00;97990.19;5070897;28;20137;-67
2022/01/02 01:10:44;;;;;;;1.13;0.50;;;;;;;1.01;100.00;97998.84;5065457;28;20495;-67
2022/01/02 01:13:31;;;;;;;1.17;0.73;;;;;;;1.01;100.00;97995.41;5070829;28;20685;-66
2022/01/02 01:16:18;;;;;;;0.93;0.67;;;;;;;0.99;100.00;97989.41;5069887;28;20570;-67
2022/01/02 01:19:04;;;;;;;3.60;1.00;;;;;;;0.96;100.00;97987.75;5071244;28;20181;-67
2022/01/02 01:21:49;;;;;;;1.33;0.60;;;;;;;0.95;100.00;97982.63;5071114;28;20117;-66
2022/01/02 01:24:37;;;;;;;0.90;0.60;;;;;;;0.96;100.00;97986.91;5069971;28;20570;-67
2022/01/02 01:27:25;;;;;;;0.70;0.60;;;;;;;0.93;100.00;97977.47;5069908;28;20055;-66
2022/01/02 01:30:13;;;;;;;1.00;0.70;;;;;;;0.94;100.00;97984.34;5070829;28;20133;-67
2022/01/02 01:32:58;;;;;;;1.60;1.00;;;;;;;0.90;100.00;97981.91;5069447;28;20130;-67
2022/01/02 01:35:44;;;;;;;1.80;0.77;;;;;;;0.83;100.00;97976.88;5071224;28;20059;-67
2022/01/02 01:38:29;;;;;;;0.90;0.60;;;;;;;0.80;100.00;97974.38;5069633;28;20162;-67
2022/01/02 01:41:27;;;;;;;0.53;0.33;;;;;;;0.79;100.00;97985.66;5069590;28;20408;-66
2022/01/02 01:47:23;;;;;;;0.50;0.40;;;;;;;0.77;100.00;97987.41;5065017;28;20059;-67
2022/01/02 01:50:09;;;;;;;0.87;0.40;;;;;;;0.73;100.00;97985.81;5069476;28;20055;-67
2022/01/02 01:52:56;;;;;;;1.07;0.30;;;;;;;0.71;100.00;98003.16;5070208;28;20059;-67
2022/01/02 01:55:43;;;;;;;0.93;0.63;;;;;;;0.70;100.00;97998.00;5070643;28;20051;-67
2022/01/02 01:58:29;;;;;;;0.90;0.60;;;;;;;0.66;100.00;97993.81;5069548;28;20512;-66
2022/01/02 02:01:17;;;;;;;0.70;0.50;;;;;;;0.65;100.00;97999.91;5068969;28;20039;-66
2022/01/02 02:04:10;;;;;;;0.30;0.30;;;;;;;0.65;100.00;97995.53;5069603;28;20055;-66
2022/01/02 02:06:58;;;;;;;0.87;0.63;;;;;;;0.67;100.00;97988.59;5069167;28;20056;-67
2022/01/02 02:10:00;;;;;;;1.53;0.50;;;;;;;0.68;100.00;97992.88;5073312;28;21985;-66
2022/01/02 02:12:47;;;;;;;1.27;0.70;;;;;;;0.68;100.00;97995.47;5074524;28;20059;-67
2022/01/02 02:15:34;;;;;;;1.43;0.90;;;;;;;0.67;100.00;97988.59;5073325;28;20059;-66
2022/01/02 02:18:21;;;;;;;0.97;0.57;;;;;;;0.71;100.00;97991.94;5073901;28;20126;-67
2022/01/02 02:21:08;;;;;;;1.60;0.60;;;;;;;0.73;100.00;98003.94;5073786;28;20051;-67
2022/01/02 02:23:54;;;;;;;0.87;0.63;;;;;;;0.67;100.00;98009.31;5073034;28;20133;-66
2022/01/02 02:26:40;;;;;;;3.10;0.70;;;;;;;0.67;100.00;98014.50;5074470;28;20063;-66
2022/01/02 02:29:25;;;;;;;1.80;0.50;;;;;;;0.60;100.00;98023.31;5072947;28;20051;-67
2022/01/02 02:32:11;;;;;;;0.73;0.50;;;;;;;0.56;100.00;98024.31;5073160;28;20171;-67
2022/01/02 02:34:57;;;;;;;1.93;0.60;;;;;;;0.59;100.00;98019.03;5072734;28;20067;-67
2022/01/02 02:37:46;;;;;;;1.10;1.00;;;;;;;0.69;100.00;98020.47;5072972;28;20105;-67
2022/01/02 02:40:36;;;;;;;0.70;0.50;;;;;;;0.64;100.00;98011.97;5073277;28;20051;-67
2022/01/02 02:43:29;;;;;;;1.17;0.90;;;;;;;0.67;100.00;98016.22;5073031;28;20048;-67
2022/01/02 02:49:39;;;;;;;1.87;1.00;;;;;;;0.68;100.00;98018.78;5074375;28;20544;-67
2022/01/02 02:52:35;;;;;;;3.20;0.70;;;;;;;0.67;100.00;98013.63;5067581;28;20129;-66
2022/01/02 02:55:30;;;;;;;0.60;0.60;;;;;;;0.67;100.00;98016.22;5073095;28;20048;-67
2022/01/02 02:58:39;;;;;;;4.40;0.97;;;;;;;0.63;100.00;98028.44;5072411;28;20044;-67
2022/01/02 03:01:27;;;;;;;1.57;1.00;;;;;;;0.57;100.00;98010.44;5073069;28;20043;-61
2022/01/02 03:04:13;;;;;;;1.53;1.13;;;;;;;0.55;100.00;98021.75;5070542;28;20047;-67
2022/01/02 03:06:59;;;;;;;3.83;1.40;;;;;;;0.59;100.00;98007.81;5071354;28;20054;-67
2022/01/02 03:09:49;;;;;;;2.23;1.50;;;;;;;0.60;100.00;98006.91;5071785;28;20051;-67
2022/01/02 03:12:38;;;;;;;2.37;1.00;;;;;;;0.48;100.00;98005.53;5066778;28;20051;-67
2022/01/02 03:15:24;;;;;;;2.10;1.13;;;;;;;0.48;100.00;97999.50;5071731;28;20090;-67
2022/01/02 03:18:09;;;;;;;1.90;1.17;;;;;;;0.50;100.00;98003.72;5072634;28;20068;-66
2022/01/02 03:20:55;;;;;;;2.10;1.57;;;;;;;0.45;100.00;98010.78;5072699;28;20408;-67
2022/01/02 03:23:41;;;;;;;2.13;1.37;;;;;;;0.36;100.00;98011.00;5071495;28;20055;-67
2022/01/02 03:26:30;;;;;;;0.90;0.90;;;;;;;0.43;100.00;98016.91;5071431;28;20043;-66
2022/01/02 03:29:17;;;;;;;4.73;2.50;;;;;;;0.39;100.00;98004.91;5071376;28;20071;-68
2022/01/02 03:32:03;;;;;;;1.53;0.90;;;;;;;0.42;100.00;98004.81;5071154;28;20059;-67
2022/01/02 03:34:49;;;;;;;1.80;1.00;;;;;;;0.35;100.00;98005.88;5071484;28;20512;-67
2022/01/02 03:37:35;;;;;;;2.73;1.40;;;;;;;0.31;100.00;97999.94;5071553;28;20056;-67
2022/01/02 03:40:21;;;;;;;2.97;1.60;;;;;;;0.27;100.00;98011.25;5071278;28;20051;-67
2022/01/02 03:43:08;;;;;;;1.20;1.07;;;;;;;0.23;100.00;98011.38;5071023;28;20063;-67
2022/01/02 03:45:55;;;;;;;3.70;1.17;;;;;;;0.16;100.00;98009.81;5067944;28;20068;-66
2022/01/02 03:48:41;;;;;;;1.47;1.00;;;;;;;0.13;100.00;97999.53;5070787;28;20056;-66
2022/01/02 03:51:29;;;;;;;2.10;1.00;;;;;;;0.11;100.00;97998.75;5071040;28;20496;-66
2022/01/02 03:54:14;;;;;;;2.13;1.20;;;;;;;0.16;100.00;98000.34;5071478;28;20055;-67
2022/01/02 03:57:00;;;;;;;1.97;1.37;;;;;;;0.08;100.00;98017.81;5071680;28;20059;-66
2022/01/02 03:59:46;;;;;;;1.63;1.07;;;;;;;0.06;100.00;98014.38;5065873;28;20063;-66
2022/01/02 04:02:34;;;;;;;1.57;1.10;;;;;;;0.04;100.00;98021.34;5029351;28;1217796;-66
2022/01/02 04:05:20;;;;;;;1.73;1.00;;;;;;;0.02;100.00;98005.00;5073147;28;20290;-66
2022/01/02 04:08:07;;;;;;;1.17;1.00;;;;;;;0.04;100.00;98007.56;5069302;28;20055;-67
2022/01/02 04:10:52;;;;;;;1.37;0.80;;;;;;;-0.00;100.00;98013.69;5066609;28;20051;-67
2022/01/02 04:13:38;;;;;;;1.43;1.00;;;;;;;-0.10;100.00;98012.22;5069764;28;20054;-66
2022/01/02 04:16:24;;;;;;;1.40;0.93;;;;;;;-0.13;100.00;98009.69;5071692;28;20078;-67
2022/01/02 04:19:11;;;;;;;2.50;1.50;;;;;;;-0.10;100.00;98010.50;5068866;28;20052;-68
2022/01/02 04:21:56;;;;;;;4.87;2.20;;;;;;;-0.10;99.99;98014.81;5071830;28;20052;-67
2022/01/02 04:24:42;;;;;;;5.70;2.73;;;;;;;-0.11;100.00;98019.16;5071082;28;20043;-67
2022/01/02 04:27:28;;;;;;;10.70;4.40;;;;;;;-0.13;99.92;98007.97;5071692;28;20047;-67
2022/01/02 04:30:16;;;;;;;12.43;4.13;;;;;;;-0.16;100.00;98012.38;5070982;28;20051;-67
2022/01/02 04:33:01;;;;;;;5.50;1.97;;;;;;;-0.23;100.00;98013.41;5066537;28;20055;-67
2022/01/02 04:35:48;;;;;;;3.20;1.97;;;;;;;-0.24;100.00;98017.72;5071355;28;20055;-67
2022/01/02 04:38:36;;;;;;;4.50;1.60;;;;;;;-0.20;100.00;98029.69;5072142;28;20051;-67
2022/01/02 04:41:22;;;;;;;4.27;1.40;;;;;;;-0.21;100.00;98017.66;5073258;28;20043;-68
2022/01/02 04:44:07;;;;;;;3.20;1.83;;;;;;;-0.28;100.00;98026.44;5071650;28;20151;-67
2022/01/02 04:46:53;;;;;;;2.67;1.33;;;;;;;-0.40;100.00;98029.31;5071014;28;20059;-67
2022/01/02 04:49:39;;;;;;;6.23;2.17;;;;;;;-0.39;100.00;98032.75;5071162;28;20393;-67
2022/01/02 04:52:26;;;;;;;8.23;3.07;;;;;;;-0.41;100.00;98037.13;5068464;28;20059;-69
2022/01/02 04:55:12;;;;;;;5.60;2.57;;;;;;;-0.37;100.00;98036.16;5067651;28;20054;-68
2022/01/02 04:57:57;;;;;;;4.40;2.83;;;;;;;-0.36;100.00;98025.78;5071075;28;20130;-67
2022/01/02 05:00:44;;;;;;;5.30;2.90;;;;;;;-0.34;100.00;98034.34;5072297;28;20047;-67
2022/01/02 05:03:29;;;;;;;3.13;2.43;;;;;;;-0.25;100.00;98034.16;5072407;28;20055;-67
2022/01/02 05:06:15;;;;;;;3.07;2.03;;;;;;;-0.27;100.00;98032.47;5069707;28;20055;-67
2022/01/02 05:09:04;;;;;;;4.77;3.10;;;;;;;-0.28;100.00;98033.34;5070824;28;20054;-67
2022/01/02 05:11:51;;;;;;;1.90;1.60;;;;;;;-0.31;100.00;98030.81;5070667;28;20051;-67
2022/01/02 05:14:37;;;;;;;3.40;2.00;;;;;;;-0.25;100.00;98038.47;5071212;28;20122;-66
2022/01/02 05:17:23;;;;;;;3.20;2.37;;;;;;;-0.21;100.00;98033.19;5070758;28;20047;-67
2022/01/02 05:20:09;;;;;;;3.40;1.90;;;;;;;-0.16;100.00;98033.91;5070518;28;20059;-67
2022/01/02 05:22:57;;;;;;;4.73;2.03;;;;;;;-0.17;100.00;98021.00;5070829;28;20165;-67
2022/01/02 05:25:44;;;;;;;3.70;2.23;;;;;;;-0.18;100.00;98004.66;5070776;28;20583;-66
2022/01/02 05:28:29;;;;;;;3.90;2.17;;;;;;;-0.20;100.00;98019.34;5068969;28;20098;-67
2022/01/02 05:31:15;;;;;;;5.60;2.80;;;;;;;-0.22;100.00;98026.31;5071192;28;20162;-67
2022/01/02 05:34:00;;;;;;;5.30;2.57;;;;;;;-0.20;100.00;98014.19;5071416;28;20056;-67
2022/01/02 05:36:49;;;;;;;2.50;1.70;;;;;;;-0.20;100.00;98021.06;5069871;28;20162;-66
2022/01/02 05:39:36;;;;;;;4.30;2.50;;;;;;;-0.23;100.00;98016.00;5070842;28;20397;-67
2022/01/02 05:42:23;;;;;;;4.17;2.90;;;;;;;-0.28;100.00;98010.06;5069919;28;20051;-67
2022/01/02 05:45:09;;;;;;;3.50;1.90;;;;;;;-0.27;100.00;98009.19;5070217;28;20145;-67
2022/01/02 05:47:55;;;;;;;3.53;1.70;;;;;;;-0.28;100.00;98005.75;5069995;28;20047;-66
2022/01/02 05:50:41;;;;;;;2.50;2.00;;;;;;;-0.39;100.00;98002.56;5069958;28;20106;-66
2022/01/02 05:53:27;;;;;;;3.27;1.60;;;;;;;-0.43;100.00;98003.53;5069813;28;20048;-66
2022/01/02 05:56:12;;;;;;;3.43;1.93;;;;;;;-0.51;100.00;98013.22;5071679;28;20060;-67
2022/01/02 05:59:00;;;;;;;3.07;2.20;;;;;;;-0.58;100.00;98034.91;5069481;28;20055;-66
2022/01/02 06:01:47;;;;;;;3.33;1.73;;;;;;;-0.56;100.00;98040.88;5069521;28;20125;-66
2022/01/02 06:04:33;;;;;;;3.83;1.90;;;;;;;-0.53;100.00;98034.78;5069702;28;20627;-66
2022/01/02 06:07:18;;;;;;;4.40;2.60;;;;;;;-0.60;100.00;98034.09;5069893;28;20055;-66
2022/01/02 06:10:06;;;;;;;3.93;2.50;;;;;;;-0.62;100.00;98024.66;5070724;28;20051;-68
2022/01/02 06:12:53;;;;;;;5.70;2.50;;;;;;;-0.67;100.00;98035.09;5070678;28;20051;-67
2022/01/02 06:15:41;;;;;;;3.67;2.20;;;;;;;-0.69;100.00;98016.19;5067656;28;20065;-67
2022/01/02 06:18:26;;;;;;;5.83;2.80;;;;;;;-0.70;100.00;98027.44;5069484;28;20054;-67
2022/01/02 06:21:11;;;;;;;2.57;1.93;;;;;;;-0.81;100.00;98019.06;5069834;28;20047;-67
2022/01/02 06:23:58;;;;;;;6.67;2.63;;;;;;;-0.81;100.00;98018.19;5069828;28;20056;-67
2022/01/02 06:26:43;;;;;;;4.40;2.23;;;;;;;-0.88;100.00;98017.50;5069225;28;20121;-67
2022/01/02 06:29:29;;;;;;;9.53;2.63;;;;;;;-0.86;100.00;98023.47;5069799;28;20064;-66
2022/01/02 06:32:19;;;;;;;4.10;2.30;;;;;;;-0.78;100.00;98023.31;5070279;28;20051;-67
2022/01/02 06:35:06;;;;;;;6.50;2.43;;;;;;;-0.85;100.00;98022.56;5070038;28;20047;-67
2022/01/02 06:37:53;;;;;;;4.73;2.83;;;;;;;-0.84;100.00;98013.94;5069227;28;20125;-67
2022/01/02 06:40:39;;;;;;;6.03;2.47;;;;;;;-0.87;100.00;98003.69;5069374;28;20520;-66
2022/01/02 06:43:26;;;;;;;7.40;3.23;;;;;;;-0.87;100.00;98002.81;5069720;28;20122;-67
2022/01/02 06:46:11;;;;;;;5.10;2.63;;;;;;;-0.85;100.00;98006.22;5069652;28;20417;-66
2022/01/02 06:48:59;;;;;;;5.13;2.80;;;;;;;-0.84;100.00;98003.63;5069500;28;20055;-68
2022/01/02 06:51:44;;;;;;;4.83;3.43;;;;;;;-0.85;100.00;98009.66;5070223;28;20162;-68
2022/01/02 06:54:29;;;;;;;10.13;3.30;;;;;;;-0.80;100.00;98000.06;5072113;28;20055;-69
2022/01/02 06:57:16;;;;;;;6.13;2.77;;;;;;;-0.74;100.00;97999.91;5073552;28;20056;-67
2022/01/02 07:00:01;;;;;;;11.07;3.57;;;;;;;-0.61;100.00;98005.66;5073070;28;20070;-67
2022/01/02 07:02:47;;;;;;;3.97;2.63;;;;;;;-0.54;100.00;98000.34;5072307;28;20048;-66
2022/01/02 07:05:34;;;;;;;5.97;2.97;;;;;;;-0.50;100.00;97994.22;5072765;28;20114;-68
2022/01/02 07:08:19;;;;;;;4.43;2.23;;;;;;;-0.40;100.00;97994.84;5072507;28;20043;-68
2022/01/02 07:11:08;;;;;;;6.77;2.30;;;;;;;-0.30;100.00;97992.00;5072525;28;20051;-67
2022/01/02 07:13:53;;;;;;;4.83;2.63;;;;;;;-0.19;100.00;98000.34;5072749;28;20170;-67
2022/01/02 07:16:39;;;;;;;5.73;3.17;;;;;;;-0.06;100.00;98006.94;5074067;28;20055;-67
2022/01/02 07:19:25;;;;;;;3.97;2.63;;;;;;;-0.00;100.00;98005.94;5074135;28;20062;-68
2022/01/02 07:22:12;;;;;;;8.37;3.77;;;;;;;-0.01;100.00;98004.25;5072031;28;20047;-67
2022/01/02 07:24:58;;;;;;;7.63;3.50;;;;;;;-0.01;100.00;98010.25;5071282;28;20051;-67
2022/01/02 07:27:43;;;;;;;6.43;3.60;;;;;;;0.07;100.00;98007.50;5073123;28;20093;-67
2022/01/02 07:30:29;;;;;;;9.13;3.97;;;;;;;0.18;100.00;97990.78;5074009;28;20044;-68
2022/01/02 07:33:14;;;;;;;6.30;3.30;;;;;;;0.44;100.00;97988.34;5071259;28;20043;-67
2022/01/02 07:36:00;;;;;;;8.00;3.73;;;;;;;0.69;100.00;97984.19;5073892;28;20199;-67
2022/01/02 07:38:47;;;;;;;5.37;3.50;;;;;;;0.87;100.00;97992.34;5072528;28;20051;-67
2022/01/02 07:41:32;;;;;;;5.33;2.80;;;;;;;1.03;100.00;97994.47;5073299;28;20055;-66
2022/01/02 07:44:17;;;;;;;4.43;2.87;;;;;;;1.07;99.00;97985.69;5071714;28;20067;-67
2022/01/02 07:47:03;;;;;;;4.03;2.83;;;;;;;1.18;98.69;97981.06;5073506;28;20669;-67
2022/01/02 07:49:49;;;;;;;5.70;3.00;;;;;;;1.37;97.57;97981.31;5071900;28;20130;-69
2022/01/02 07:52:34;;;;;;;5.20;2.83;;;;;;;1.59;96.96;97978.03;5073272;28;20051;-68
2022/01/02 07:55:21;;;;;;;3.20;1.70;;;;;;;1.58;95.86;97983.28;5073125;28;20063;-68
2022/01/02 07:58:06;;;;;;;3.13;2.07;;;;;;;1.54;95.35;97971.28;5073205;28;20048;-66
2022/01/02 08:00:52;;;;;;;3.50;2.37;;;;;;;1.41;94.46;97977.78;5073149;28;20448;-67
2022/01/02 08:03:37;;;;;;;6.37;2.43;;;;;;;1.27;94.31;97975.56;5071915;28;20168;-68
2022/01/02 08:06:23;;;;;;;4.60;2.17;;;;;;;1.29;94.81;97983.31;5070874;28;20401;-67
2022/01/02 08:09:08;;;;;;;4.03;2.60;;;;;;;1.31;94.22;97987.56;5072809;28;20102;-68
2022/01/02 08:11:55;;;;;;;4.17;2.57;;;;;;;1.42;94.17;97984.66;5071531;28;20181;-68
2022/01/02 08:14:40;;;;;;;3.17;2.53;;;;;;;1.27;93.59;97979.94;5071556;28;20125;-68
2022/01/02 08:17:27;;;;;;;4.77;2.50;;;;;;;1.46;93.63;97976.72;5072228;28;20433;-67
2022/01/02 08:20:13;;;;;;;5.00;3.30;;;;;;;1.61;92.75;97981.44;5072650;28;20059;-67
2022/01/02 08:22:59;;;;;;;5.17;3.60;;;;;;;1.81;92.47;97968.66;5072214;28;20040;-66
2022/01/02 08:25:45;;;;;;;6.27;3.97;;;;;;;1.97;91.63;97975.03;5071478;28;20052;-67
2022/01/02 08:28:32;;;;;;;6.63;3.93;;;;;;;2.23;90.84;97969.81;5072669;28;20055;-67
2022/01/02 08:31:17;;;;;;;8.90;3.90;;;;;;;2.65;89.76;97970.06;5067145;28;20456;-68
2022/01/02 08:34:03;;;;;;;6.73;3.70;;;;;;;2.90;88.21;97976.97;5070679;28;20055;-68
2022/01/02 08:36:49;;;;;;;5.23;3.37;;;;;;;2.63;87.47;97979.69;5071124;28;20071;-65
2022/01/02 08:39:34;;;;;;;10.87;3.80;;;;;;;2.33;87.17;97978.19;5072078;28;20059;-63
2022/01/02 08:42:19;;;;;;;7.47;3.13;;;;;;;2.23;87.00;97981.97;5070305;28;20121;-65
2022/01/02 08:45:08;;;;;;;6.87;3.37;;;;;;;2.02;87.24;97980.94;5071627;28;20048;-65
2022/01/02 08:47:54;;;;;;;10.23;3.90;;;;;;;2.05;87.35;97972.22;5070572;28;20167;-63
2022/01/02 08:50:39;;;;;;;12.77;4.57;;;;;;;2.10;87.18;97962.50;5071885;28;20059;-66
2022/01/02 08:53:27;;;;;;;9.37;4.20;;;;;;;2.27;87.16;97947.19;5070480;28;20133;-67
2022/01/02 08:56:13;;;;;;;11.37;4.60;;;;;;;2.39;86.84;97938.97;5072654;28;20125;-65
2022/01/02 08:58:59;;;;;;;5.97;3.57;;;;;;;2.44;86.68;97924.91;5071216;28;20524;-65
2022/01/02 09:01:45;;;;;;;5.67;3.80;;;;;;;2.52;86.82;97927.25;5072055;28;20452;-68
2022/01/02 09:04:31;;;;;;;8.80;4.57;;;;;;;2.63;86.61;97919.91;5073368;28;20043;-69
2022/01/02 09:07:17;;;;;;;9.83;4.93;;;;;;;2.78;86.15;97911.56;5072548;28;20114;-68
2022/01/02 09:10:03;;;;;;;4.97;3.67;;;;;;;2.82;86.60;97907.94;5070705;28;20094;-71
2022/01/02 09:12:49;;;;;;;6.63;3.97;;;;;;;2.81;86.06;97906.25;5070924;28;20516;-72
2022/01/02 09:15:35;;;;;;;5.87;3.73;;;;;;;2.91;85.99;97899.78;5071978;28;20059;-70
2022/01/02 09:18:21;;;;;;;3.97;2.70;;;;;;;3.09;85.58;97891.31;5070425;28;20059;-71
2022/01/02 09:21:07;;;;;;;5.30;2.97;;;;;;;3.06;85.06;97888.81;5071819;28;20130;-70
2022/01/02 09:23:53;;;;;;;3.80;2.93;;;;;;;3.11;85.38;97884.31;5071362;28;20052;-71
2022/01/02 09:26:38;;;;;;;7.03;3.30;;;;;;;3.38;84.70;97880.59;5070182;28;20173;-69
2022/01/02 09:29:24;;;;;;;5.57;3.47;;;;;;;3.43;84.40;97892.53;5070477;28;20121;-68
2022/01/02 09:32:10;;;;;;;7.30;4.30;;;;;;;3.53;83.69;97888.66;5068819;28;20055;-69
2022/01/02 09:34:57;;;;;;;4.37;3.50;;;;;;;3.76;83.60;97882.47;5070425;28;20048;-69
2022/01/02 09:37:42;;;;;;;7.67;4.80;;;;;;;3.78;83.47;97863.31;5070957;28;20055;-67
2022/01/02 09:40:30;;;;;;;8.63;5.37;;;;;;;3.74;83.19;97845.25;5069637;28;20173;-68
2022/01/02 09:43:16;;;;;;;6.53;3.93;;;;;;;3.68;83.54;97838.56;5070604;28;20059;-68
2022/01/02 09:46:03;;;;;;;8.67;4.67;;;;;;;3.70;84.38;97830.69;5071509;28;20129;-69
2022/01/02 09:48:50;;;;;;;7.17;4.50;;;;;;;3.66;83.68;97832.56;5071113;28;20424;-67
2022/01/02 09:51:37;;;;;;;5.90;4.03;;;;;;;3.42;83.96;97822.31;5072064;28;20043;-68
2022/01/02 09:54:23;;;;;;;5.83;3.77;;;;;;;3.35;84.34;97823.47;5071820;28;20137;-69
2022/01/02 09:56:50;;;;;;;6.63;3.80;;;;;;;3.24;84.88;97825.66;5070721;28;21434;-70
2022/01/02 09:59:18;;;;;;;6.73;3.93;;;;;;;3.24;85.50;97820.47;5070247;28;20048;-67
2022/01/02 10:01:45;;;;;;;7.17;3.90;;;;;;;3.24;85.78;97813.50;5070991;28;20516;-67
2022/01/02 10:04:12;;;;;;;4.57;2.97;;;;;;;3.21;85.58;97812.78;5069775;28;20044;-66
2022/01/02 10:06:46;;;;;;;4.67;3.60;;;;;;;3.15;85.63;97806.06;5069598;28;20524;-68
2022/01/02 10:09:29;;;;;;;5.67;4.07;;;;;;;2.99;86.20;97794.56;5069809;28;20045;-66
2022/01/02 10:12:26;;;;;;;6.03;3.38;;;;;;;3.19;86.18;97799.00;5069980;28;20041;-68
2022/01/02 10:15:14;;;;;;;6.43;3.80;;;;;;;3.19;86.43;97794.63;5071112;28;20063;-79
2022/01/02 10:17:53;;;;;;;6.30;3.93;;;;;;;3.27;86.54;97786.53;5069785;28;20048;-64
2022/01/02 10:20:20;;;;;;;7.37;3.60;;;;;;;3.49;86.39;97774.31;5069685;28;20121;-68
2022/01/02 10:23:03;;;;;;;6.13;3.00;;;;;;;3.88;85.48;97777.81;5070884;28;20079;-73
2022/01/02 10:25:42;;;;;;;6.23;3.53;;;;;;;3.82;85.39;97768.50;5070645;28;20120;-66
2022/01/02 10:28:37;;;;;;;5.53;3.57;;;;;;;3.53;85.82;97771.53;5069867;28;20795;-67
2022/01/02 10:31:07;;;;;;;5.63;3.97;;;;;;;3.41;91.56;97748.59;5038893;28;20618;-66
2022/01/02 10:33:49;;;;;;;12.73;7.93;;;;;;;3.71;93.53;97746.44;5073946;28;20565;-67
2022/01/02 10:36:25;;;;;;;7.20;4.47;;;;;;;3.42;92.98;97749.44;5074600;28;20044;-68
2022/01/02 10:39:11;;;;;;;4.67;3.53;;;;;;;3.81;96.38;97742.53;5070357;28;20051;-68
2022/01/02 10:41:40;;;;;;;6.63;4.13;;;;;;;3.66;93.85;97732.78;5073436;28;20120;-68
2022/01/02 10:44:26;;;;;;;5.10;3.47;;;;;;;3.50;93.21;97731.75;5074243;28;20507;-68
2022/01/02 10:47:08;;;;;;;8.90;4.13;;;;;;;3.41;91.77;97725.16;5074933;28;20523;-67
2022/01/02 10:49:50;;;;;;;6.00;3.70;;;;;;;3.28;91.02;97716.22;5075222;28;20048;-68
2022/01/02 10:52:19;;;;;;;6.80;4.17;;;;;;;3.14;90.50;97722.88;5074058;28;20041;-68
2022/01/02 10:54:49;;;;;;;4.73;3.60;;;;;;;3.06;90.43;97717.16;5074309;28;20287;-67
2022/01/02 10:57:16;;;;;;;5.57;3.23;;;;;;;3.04;90.54;97712.03;5074080;28;20136;-68
2022/01/02 10:59:44;;;;;;;5.67;3.83;;;;;;;3.01;90.69;97717.38;5074450;28;20048;-68
2022/01/02 11:02:12;;;;;;;4.90;3.60;;;;;;;2.98;90.24;97714.00;5073919;28;20127;-67
2022/01/02 11:04:46;;;;;;;95.00;67.30;;;;;;;3.00;90.97;97714.78;5074167;28;20036;-66
2022/01/02 11:07:18;;;;;;;11.27;7.80;;;;;;;3.19;90.39;97711.38;5073742;28;20036;-67
2022/01/02 11:09:47;;;;;;;5.67;3.80;;;;;;;3.46;89.90;97701.56;5073795;28;20043;-68
2022/01/02 11:12:16;;;;;;;7.50;4.03;;;;;;;3.55;89.08;97703.78;5073507;28;20102;-68
2022/01/02 11:14:43;;;;;;;8.67;4.13;;;;;;;3.64;88.43;97698.16;5073756;28;20085;-70
2022/01/02 11:17:11;;;;;;;6.73;4.23;;;;;;;3.52;88.31;97689.13;5073669;28;20040;-68
2022/01/02 11:19:38;;;;;;;6.10;3.90;;;;;;;3.30;88.47;97688.34;5071304;28;20094;-68
2022/01/02 11:22:08;;;;;;;6.80;4.87;;;;;;;3.10;89.40;97687.50;5072785;28;20052;-76
2022/01/02 11:24:43;;;;;;;6.70;4.87;;;;;;;2.98;90.23;97682.78;5072299;28;20045;-75
2022/01/02 11:27:20;;;;;;;6.47;4.37;;;;;;;2.80;90.32;97680.94;5072523;28;20045;-76
2022/01/02 11:29:47;;;;;;;7.50;4.10;;;;;;;2.65;91.19;97672.03;5072905;28;20796;-76
2022/01/02 11:32:23;;;;;;;7.50;4.90;;;;;;;2.69;91.79;97672.75;5073006;28;20032;-76
2022/01/02 11:34:51;;;;;;;6.17;4.20;;;;;;;2.59;91.70;97656.69;5072398;28;20045;-75
2022/01/02 11:37:27;;;;;;;7.33;4.40;;;;;;;2.50;91.94;97659.66;5072617;28;20041;-75
2022/01/02 11:39:56;;;;;;;5.60;3.60;;;;;;;2.73;92.37;97661.31;5070911;28;20481;-75
2022/01/02 11:42:52;;;;;;;7.17;4.30;;;;;;;2.96;91.92;97656.84;5071740;28;20072;-75
2022/01/02 11:45:41;;;;;;;6.67;3.97;;;;;;;3.16;91.50;97656.06;5037059;28;20408;-75
2022/01/02 11:48:29;;;;;;;6.73;4.73;;;;;;;3.25;91.35;97651.28;5068446;28;20037;-75
2022/01/02 11:50:57;;;;;;;6.77;3.60;;;;;;;3.47;90.75;97640.78;5072426;28;20067;-76
2022/01/02 11:53:25;;;;;;;7.07;4.07;;;;;;;3.65;90.01;97622.59;5070937;28;20044;-75
2022/01/02 11:55:54;;;;;;;7.20;3.77;;;;;;;3.71;89.76;97626.69;5073683;28;20041;-75
2022/01/02 11:58:51;;;;;;;8.03;4.60;;;;;;;3.55;89.70;97631.72;5072371;28;20127;-75
2022/01/02 12:01:48;;;;;;;7.17;4.40;;;;;;;3.33;90.53;97630.97;5072810;28;20050;-75
2022/01/02 12:04:16;;;;;;;8.90;5.00;;;;;;;3.39;91.17;97624.66;5072293;28;20098;-75
2022/01/02 12:06:45;;;;;;;6.03;3.43;;;;;;;3.44;91.05;97615.75;5071628;28;20127;-74
2022/01/02 12:09:37;;;;;;;5.33;3.60;;;;;;;3.31;91.27;97611.16;5071990;28;20090;-75
2022/01/02 12:12:07;;;;;;;6.00;3.60;;;;;;;3.25;92.18;97601.00;5072115;28;20043;-75
2022/01/02 12:14:52;;;;;;;9.60;3.83;;;;;;;3.24;92.41;97609.72;5071510;28;20044;-74
2022/01/02 12:17:23;;;;;;;5.20;3.07;;;;;;;3.17;92.60;97593.56;5071749;28;20119;-75
2022/01/02 12:20:03;;;;;;;6.00;3.83;;;;;;;3.22;93.09;97593.38;5070456;28;20090;-76
2022/01/02 12:22:46;;;;;;;7.33;4.60;;;;;;;3.16;93.63;97597.09;5071825;28;20044;-75
2022/01/02 12:25:16;;;;;;;5.30;3.90;;;;;;;3.11;93.94;97587.78;5071625;28;20293;-75
2022/01/02 12:27:51;;;;;;;6.33;4.30;;;;;;;3.13;94.58;97602.41;5071220;28;20044;-75
2022/01/02 12:30:20;;;;;;;6.53;4.57;;;;;;;3.03;94.60;97593.31;5071389;28;20140;-75
2022/01/02 12:32:48;;;;;;;6.43;4.63;;;;;;;3.02;95.62;97591.63;5071417;28;20090;-75
2022/01/02 12:35:16;;;;;;;7.80;4.50;;;;;;;3.07;95.84;97584.47;5070858;28;20858;-76
2022/01/02 12:37:43;;;;;;;5.70;4.07;;;;;;;3.21;95.78;97578.66;5071382;28;20041;-75
2022/01/02 12:40:15;;;;;;;8.30;4.80;;;;;;;3.18;95.95;97558.81;5070224;28;20102;-75
2022/01/02 12:42:43;;;;;;;10.37;5.93;;;;;;;3.20;96.06;97563.97;5071295;28;20132;-74
2022/01/02 12:45:10;;;;;;;7.23;4.23;;;;;;;3.30;96.37;97547.03;5070960;28;20037;-75
2022/01/02 12:47:48;;;;;;;6.97;5.10;;;;;;;3.43;96.89;97559.41;5071000;28;20109;-74
2022/01/02 12:50:23;;;;;;;7.67;4.40;;;;;;;3.64;96.58;97563.66;5071403;28;20048;-75
2022/01/02 12:52:52;;;;;;;6.90;4.87;;;;;;;3.63;96.31;97558.50;5070547;28;20098;-75
2022/01/02 12:55:19;;;;;;;9.00;4.60;;;;;;;3.66;96.09;97547.97;5071275;28;20052;-75
2022/01/02 12:57:46;;;;;;;8.67;4.17;;;;;;;3.58;96.11;97553.50;5071016;28;20060;-75